sensor_id;sensor_type;location;lat;lon;timestamp;pressure;altitude;pressure_sealevel;temperature;humidity
56334;BME280;42240;53.626;55.886;2023-04-06T00:00:19;76489.56;;;-145.10;97.29
56334;BME280;42240;53.626;55.886;2023-04-06T00:01:53;76497.47;;;-145.10;96.94
56334;BME280;42240;53.626;55.886;2023-04-06T00:03:26;76503.41;;;-145.10;97.83
56334;BME280;42240;53.626;55.886;2023-04-06T00:04:59;76513.28;;;-145.10;97.76
56334;BME280;42240;53.626;55.886;2023-04-06T00:06:33;76531.09;;;-145.10;98.56
56334;BME280;42240;53.626;55.886;2023-04-06T00:08:05;76539.00;;;-145.10;98.96
56334;BME280;42240;53.626;55.886;2023-04-06T00:09:38;76548.88;;;-145.10;99.14
56334;BME280;42240;53.626;55.886;2023-04-06T00:11:11;76550.88;;;-145.10;99.84
56334;BME280;42240;53.626;55.886;2023-04-06T00:12:43;76552.84;;;-145.10;100.00
56334;BME280;42240;53.626;55.886;2023-04-06T00:14:16;76556.81;;;-145.10;100.00
56334;BME280;42240;53.626;55.886;2023-04-06T00:15:49;76560.75;;;-145.10;100.00
56334;BME280;42240;53.626;55.886;2023-04-06T00:17:22;76576.56;;;-145.10;100.00
56334;BME280;42240;53.626;55.886;2023-04-06T00:18:55;76580.53;;;-145.10;90.82
56334;BME280;42240;53.626;55.886;2023-04-06T00:20:28;76594.38;;;-145.10;92.55
56334;BME280;42240;53.626;55.886;2023-04-06T00:22:00;76588.44;;;-145.10;97.80
56334;BME280;42240;53.626;55.886;2023-04-06T00:23:34;76576.56;;;-145.10;99.08
56334;BME280;42240;53.626;55.886;2023-04-06T00:25:07;76568.66;;;-145.10;99.74
56334;BME280;42240;53.626;55.886;2023-04-06T00:26:40;76560.75;;;-145.10;99.83
56334;BME280;42240;53.626;55.886;2023-04-06T00:28:12;76558.78;;;-145.10;99.47
56334;BME280;42240;53.626;55.886;2023-04-06T00:29:46;76564.72;;;-145.10;100.00
56334;BME280;42240;53.626;55.886;2023-04-06T00:31:18;76560.75;;;-145.10;100.00
56334;BME280;42240;53.626;55.886;2023-04-06T00:32:52;76568.66;;;-145.10;100.00
56334;BME280;42240;53.626;55.886;2023-04-06T00:34:24;76582.50;;;-145.10;100.00
56334;BME280;42240;53.626;55.886;2023-04-06T00:35:57;76580.53;;;-145.10;100.00
56334;BME280;42240;53.626;55.886;2023-04-06T00:37:30;76586.47;;;-145.10;100.00
56334;BME280;42240;53.626;55.886;2023-04-06T00:39:03;76584.47;;;-145.10;100.00
56334;BME280;42240;53.626;55.886;2023-04-06T00:40:35;76592.41;;;-145.10;100.00
56334;BME280;42240;53.626;55.886;2023-04-06T00:42:10;76592.41;;;-145.10;100.00
56334;BME280;42240;53.626;55.886;2023-04-06T00:43:44;76600.31;;;-145.10;100.00
56334;BME280;42240;53.626;55.886;2023-04-06T00:45:18;76608.22;;;-145.10;100.00
56334;BME280;42240;53.626;55.886;2023-04-06T00:46:50;76600.31;;;-145.10;100.00
56334;BME280;42240;53.626;55.886;2023-04-06T00:48:23;76592.41;;;-145.10;100.00
56334;BME280;42240;53.626;55.886;2023-04-06T00:49:56;76604.25;;;-145.10;100.00
56334;BME280;42240;53.626;55.886;2023-04-06T00:51:29;76600.31;;;-145.10;100.00
56334;BME280;42240;53.626;55.886;2023-04-06T00:53:02;76592.41;;;-145.10;100.00
56334;BME280;42240;53.626;55.886;2023-04-06T00:54:35;76580.53;;;-145.10;100.00
56334;BME280;42240;53.626;55.886;2023-04-06T00:56:08;76560.75;;;-145.10;100.00
56334;BME280;42240;53.626;55.886;2023-04-06T00:57:53;76562.72;;;-145.10;100.00
56334;BME280;42240;53.626;55.886;2023-04-06T00:59:27;76570.63;;;-145.10;100.00
56334;BME280;42240;53.626;55.886;2023-04-06T01:01:01;76570.63;;;-145.10;100.00
56334;BME280;42240;53.626;55.886;2023-04-06T01:02:34;76576.56;;;-145.10;100.00
56334;BME280;42240;53.626;55.886;2023-04-06T01:04:07;76576.56;;;-145.10;100.00
56334;BME280;42240;53.626;55.886;2023-04-06T01:05:45;76574.59;;;-145.10;100.00
56334;BME280;42240;53.626;55.886;2023-04-06T01:07:29;76556.81;;;-145.10;100.00
56334;BME280;42240;53.626;55.886;2023-04-06T01:09:12;76558.78;;;-145.10;100.00
56334;BME280;42240;53.626;55.886;2023-04-06T01:10:46;76540.97;;;-145.10;100.00
56334;BME280;42240;53.626;55.886;2023-04-06T01:12:28;76552.84;;;-145.10;100.00
56334;BME280;42240;53.626;55.886;2023-04-06T01:14:02;76537.03;;;-145.10;100.00
56334;BME280;42240;53.626;55.886;2023-04-06T01:15:53;76513.28;;;-145.10;100.00
56334;BME280;42240;53.626;55.886;2023-04-06T01:17:46;76505.38;;;-145.10;100.00
56334;BME280;42240;53.626;55.886;2023-04-06T01:19:21;76495.50;;;-145.10;100.00
56334;BME280;42240;53.626;55.886;2023-04-06T01:20:56;76503.41;;;-145.10;100.00
56334;BME280;42240;53.626;55.886;2023-04-06T01:22:31;76491.53;;;-145.10;99.17
56334;BME280;42240;53.626;55.886;2023-04-06T01:24:07;76485.63;;;-145.10;99.19
56334;BME280;42240;53.626;55.886;2023-04-06T01:26:09;76493.53;;;-145.10;99.33
56334;BME280;42240;53.626;55.886;2023-04-06T01:27:42;76499.47;;;-145.10;99.31
56334;BME280;42240;53.626;55.886;2023-04-06T01:29:47;76507.38;;;-145.10;99.99
56334;BME280;42240;53.626;55.886;2023-04-06T01:31:26;76521.22;;;-145.10;100.00
56334;BME280;42240;53.626;55.886;2023-04-06T01:32:59;76521.22;;;-145.10;100.00
56334;BME280;42240;53.626;55.886;2023-04-06T01:34:45;76556.81;;;-145.10;100.00
56334;BME280;42240;53.626;55.886;2023-04-06T01:36:18;76578.56;;;-145.10;100.00
56334;BME280;42240;53.626;55.886;2023-04-06T01:37:56;76594.38;;;-145.10;100.00
56334;BME280;42240;53.626;55.886;2023-04-06T01:39:35;76596.34;;;-145.10;100.00
56334;BME280;42240;53.626;55.886;2023-04-06T01:41:10;76604.25;;;-145.10;100.00
56334;BME280;42240;53.626;55.886;2023-04-06T01:42:52;76588.44;;;-145.10;100.00
56334;BME280;42240;53.626;55.886;2023-04-06T01:44:34;76592.41;;;-145.10;100.00
56334;BME280;42240;53.626;55.886;2023-04-06T01:46:18;76584.47;;;-145.10;100.00
56334;BME280;42240;53.626;55.886;2023-04-06T01:47:52;76588.44;;;-145.10;100.00
56334;BME280;42240;53.626;55.886;2023-04-06T01:49:28;76600.31;;;-145.10;100.00
56334;BME280;42240;53.626;55.886;2023-04-06T01:51:01;76608.22;;;-145.10;100.00
56334;BME280;42240;53.626;55.886;2023-04-06T01:52:38;76616.13;;;-145.10;100.00
56334;BME280;42240;53.626;55.886;2023-04-06T01:54:10;76624.03;;;-145.10;100.00
56334;BME280;42240;53.626;55.886;2023-04-06T01:56:02;76637.88;;;-145.10;100.00
56334;BME280;42240;53.626;55.886;2023-04-06T01:57:38;76624.03;;;-145.10;100.00
56334;BME280;42240;53.626;55.886;2023-04-06T01:59:22;76588.44;;;-145.10;100.00
56334;BME280;42240;53.626;55.886;2023-04-06T02:00:55;76600.31;;;-145.10;100.00
56334;BME280;42240;53.626;55.886;2023-04-06T02:02:29;76586.47;;;-145.10;100.00
56334;BME280;42240;53.626;55.886;2023-04-06T02:04:09;76584.47;;;-145.10;100.00
56334;BME280;42240;53.626;55.886;2023-04-06T02:05:42;76580.53;;;-145.10;100.00
56334;BME280;42240;53.626;55.886;2023-04-06T02:07:41;76584.47;;;-145.10;100.00
56334;BME280;42240;53.626;55.886;2023-04-06T02:09:16;76596.34;;;-145.10;100.00
56334;BME280;42240;53.626;55.886;2023-04-06T02:10:49;76622.06;;;-145.10;100.00
56334;BME280;42240;53.626;55.886;2023-04-06T02:12:31;76614.16;;;-145.10;100.00
56334;BME280;42240;53.626;55.886;2023-04-06T02:14:04;76600.31;;;-145.10;100.00
56334;BME280;42240;53.626;55.886;2023-04-06T02:15:43;76594.38;;;-145.10;100.00
56334;BME280;42240;53.626;55.886;2023-04-06T02:17:16;76596.34;;;-145.10;100.00
56334;BME280;42240;53.626;55.886;2023-04-06T02:18:49;76596.34;;;-145.10;100.00
56334;BME280;42240;53.626;55.886;2023-04-06T02:20:23;76598.31;;;-145.10;100.00
56334;BME280;42240;53.626;55.886;2023-04-06T02:21:55;76584.47;;;-145.10;100.00
56334;BME280;42240;53.626;55.886;2023-04-06T02:23:28;76584.47;;;-145.10;100.00
56334;BME280;42240;53.626;55.886;2023-04-06T02:25:01;76572.63;;;-145.10;100.00
56334;BME280;42240;53.626;55.886;2023-04-06T02:26:35;76550.88;;;-145.10;100.00
56334;BME280;42240;53.626;55.886;2023-04-06T02:28:07;76537.03;;;-145.10;100.00
56334;BME280;42240;53.626;55.886;2023-04-06T02:29:40;76511.31;;;-145.10;100.00
56334;BME280;42240;53.626;55.886;2023-04-06T02:31:13;76487.59;;;-145.10;100.00
56334;BME280;42240;53.626;55.886;2023-04-06T02:32:49;76430.25;;;-145.10;99.63
56334;BME280;42240;53.626;55.886;2023-04-06T02:34:22;76343.25;;;-145.10;97.01
56334;BME280;42240;53.626;55.886;2023-04-06T02:35:56;76252.28;;;-145.10;93.82
56334;BME280;42240;53.626;55.886;2023-04-06T02:37:29;76149.47;;;-145.10;89.30
56334;BME280;42240;53.626;55.886;2023-04-06T02:39:03;76090.16;;;-145.10;83.44
56334;BME280;42240;53.626;55.886;2023-04-06T02:40:36;76044.69;;;-145.10;78.09
56334;BME280;42240;53.626;55.886;2023-04-06T02:42:38;76019.00;;;-145.10;73.23
56334;BME280;42240;53.626;55.886;2023-04-06T02:44:11;75949.78;;;-145.10;70.56
56334;BME280;42240;53.626;55.886;2023-04-06T02:45:47;75908.28;;;-145.10;67.16
56334;BME280;42240;53.626;55.886;2023-04-06T02:47:20;75837.09;;;-145.10;65.98
56334;BME280;42240;53.626;55.886;2023-04-06T02:48:55;75809.41;;;-145.10;62.61
56334;BME280;42240;53.626;55.886;2023-04-06T02:50:30;75744.19;;;-145.10;61.95
56334;BME280;42240;53.626;55.886;2023-04-06T02:52:06;75682.91;;;-145.10;59.14
56334;BME280;42240;53.626;55.886;2023-04-06T02:53:40;75629.53;;;-145.10;57.58
56334;BME280;42240;53.626;55.886;2023-04-06T02:55:13;75586.03;;;-145.10;56.65
56334;BME280;42240;53.626;55.886;2023-04-06T02:56:45;75538.59;;;-145.10;56.56
56334;BME280;42240;53.626;55.886;2023-04-06T02:58:19;75469.38;;;-145.10;56.10
56334;BME280;42240;53.626;55.886;2023-04-06T02:59:56;75497.06;;;-145.10;53.75
56334;BME280;42240;53.626;55.886;2023-04-06T03:01:37;75443.69;;;-145.10;53.24
56334;BME280;42240;53.626;55.886;2023-04-06T03:03:10;75475.31;;;-145.10;51.77
56334;BME280;42240;53.626;55.886;2023-04-06T03:04:45;75489.16;;;-145.10;50.15
56334;BME280;42240;53.626;55.886;2023-04-06T03:06:33;75504.97;;;-145.10;49.20
56334;BME280;42240;53.626;55.886;2023-04-06T03:08:16;75504.97;;;-145.10;48.88
56334;BME280;42240;53.626;55.886;2023-04-06T03:09:50;75504.97;;;-145.10;48.63
56334;BME280;42240;53.626;55.886;2023-04-06T03:11:23;75595.91;;;-145.10;48.25
56334;BME280;42240;53.626;55.886;2023-04-06T03:12:57;75635.44;;;-145.10;48.77
56334;BME280;42240;53.626;55.886;2023-04-06T03:14:44;75702.66;;;-145.10;49.43
56334;BME280;42240;53.626;55.886;2023-04-06T03:16:17;75671.03;;;-145.10;49.80
56334;BME280;42240;53.626;55.886;2023-04-06T03:17:50;75588.00;;;-145.10;49.02
56334;BME280;42240;53.626;55.886;2023-04-06T03:19:41;75542.53;;;-145.10;47.94
56334;BME280;42240;53.626;55.886;2023-04-06T03:21:15;75427.88;;;-145.10;47.11
56334;BME280;42240;53.626;55.886;2023-04-06T03:22:52;75416.00;;;-145.10;46.08
56334;BME280;42240;53.626;55.886;2023-04-06T03:24:29;75376.47;;;-145.10;45.85
56334;BME280;42240;53.626;55.886;2023-04-06T03:26:03;75378.47;;;-145.10;44.50
56334;BME280;42240;53.626;55.886;2023-04-06T03:27:36;75370.53;;;-145.10;44.42
56334;BME280;42240;53.626;55.886;2023-04-06T03:29:10;75368.56;;;-145.10;43.19
56334;BME280;42240;53.626;55.886;2023-04-06T03:30:44;75516.84;;;-145.10;44.32
56334;BME280;42240;53.626;55.886;2023-04-06T03:32:20;75609.75;;;-145.10;45.33
56334;BME280;42240;53.626;55.886;2023-04-06T03:33:53;75722.44;;;-145.10;47.46
56334;BME280;42240;53.626;55.886;2023-04-06T03:35:30;75631.50;;;-145.10;48.71
56334;BME280;42240;53.626;55.886;2023-04-06T03:37:03;75530.66;;;-145.10;47.67
56334;BME280;42240;53.626;55.886;2023-04-06T03:38:46;75637.44;;;-145.10;47.41
56334;BME280;42240;53.626;55.886;2023-04-06T03:40:19;75659.16;;;-145.10;47.76
56334;BME280;42240;53.626;55.886;2023-04-06T03:41:52;75750.13;;;-145.10;48.49
56334;BME280;42240;53.626;55.886;2023-04-06T03:43:37;75730.34;;;-145.10;49.10
56334;BME280;42240;53.626;55.886;2023-04-06T03:45:10;75734.28;;;-145.10;49.67
56334;BME280;42240;53.626;55.886;2023-04-06T03:46:50;75760.00;;;-145.10;49.90
56334;BME280;42240;53.626;55.886;2023-04-06T03:48:23;75779.75;;;-145.10;50.58
56334;BME280;42240;53.626;55.886;2023-04-06T03:49:57;75769.88;;;-145.10;50.63
56334;BME280;42240;53.626;55.886;2023-04-06T03:51:29;75734.28;;;-145.10;50.42
56334;BME280;42240;53.626;55.886;2023-04-06T03:53:03;75811.41;;;-145.10;51.40
56334;BME280;42240;53.626;55.886;2023-04-06T03:54:36;75763.94;;;-145.10;51.92
56334;BME280;42240;53.626;55.886;2023-04-06T03:56:08;75722.44;;;-145.10;51.03
56334;BME280;42240;53.626;55.886;2023-04-06T03:57:42;75718.47;;;-145.10;51.43
56334;BME280;42240;53.626;55.886;2023-04-06T03:59:14;75706.63;;;-145.10;50.83
56334;BME280;42240;53.626;55.886;2023-04-06T04:00:47;75574.16;;;-145.10;49.61
56334;BME280;42240;53.626;55.886;2023-04-06T04:02:20;75487.19;;;-145.10;48.82
56334;BME280;42240;53.626;55.886;2023-04-06T04:03:55;75475.31;;;-145.10;47.24
56334;BME280;42240;53.626;55.886;2023-04-06T04:05:28;75475.31;;;-145.10;46.35
56334;BME280;42240;53.626;55.886;2023-04-06T04:07:01;75501.03;;;-145.10;46.03
56334;BME280;42240;53.626;55.886;2023-04-06T04:08:34;75562.31;;;-145.10;46.45
56334;BME280;42240;53.626;55.886;2023-04-06T04:10:07;75501.03;;;-145.10;46.32
56334;BME280;42240;53.626;55.886;2023-04-06T04:11:40;75558.34;;;-145.10;46.35
56334;BME280;42240;53.626;55.886;2023-04-06T04:13:13;75526.72;;;-145.10;47.23
56334;BME280;42240;53.626;55.886;2023-04-06T04:14:50;75524.75;;;-145.10;46.53
56334;BME280;42240;53.626;55.886;2023-04-06T04:16:24;75522.75;;;-145.10;47.66
56334;BME280;42240;53.626;55.886;2023-04-06T04:17:57;75467.41;;;-145.10;46.09
56334;BME280;42240;53.626;55.886;2023-04-06T04:19:30;75257.88;;;-145.10;45.28
56334;BME280;42240;53.626;55.886;2023-04-06T04:21:03;75166.94;;;-145.10;43.15
56334;BME280;42240;53.626;55.886;2023-04-06T04:22:36;75072.06;;;-145.10;40.93
56334;BME280;42240;53.626;55.886;2023-04-06T04:24:09;75012.75;;;-145.10;39.28
56334;BME280;42240;53.626;55.886;2023-04-06T04:25:43;75024.63;;;-145.10;39.66
56334;BME280;42240;53.626;55.886;2023-04-06T04:27:16;74884.28;;;-145.10;38.48
56334;BME280;42240;53.626;55.886;2023-04-06T04:28:49;74848.72;;;-145.10;37.78
56334;BME280;42240;53.626;55.886;2023-04-06T04:30:22;74844.75;;;-145.10;37.37
56334;BME280;42240;53.626;55.886;2023-04-06T04:31:54;74876.38;;;-145.10;36.56
56334;BME280;42240;53.626;55.886;2023-04-06T04:33:28;74832.91;;;-145.10;36.88
56334;BME280;42240;53.626;55.886;2023-04-06T04:35:02;74799.28;;;-145.10;36.08
56334;BME280;42240;53.626;55.886;2023-04-06T04:36:40;74670.81;;;-145.10;35.30
56334;BME280;42240;53.626;55.886;2023-04-06T04:38:18;74629.31;;;-145.10;35.02
56334;BME280;42240;53.626;55.886;2023-04-06T04:39:55;74526.53;;;-145.10;34.00
56334;BME280;42240;53.626;55.886;2023-04-06T04:41:28;74643.16;;;-145.10;33.78
56334;BME280;42240;53.626;55.886;2023-04-06T04:43:03;74492.94;;;-145.10;33.13
56334;BME280;42240;53.626;55.886;2023-04-06T04:44:38;74382.28;;;-145.10;32.64
56334;BME280;42240;53.626;55.886;2023-04-06T04:46:11;74342.75;;;-145.10;31.77
56334;BME280;42240;53.626;55.886;2023-04-06T04:47:47;74263.69;;;-145.10;30.54
56334;BME280;42240;53.626;55.886;2023-04-06T04:49:22;74265.69;;;-145.10;30.52
56334;BME280;42240;53.626;55.886;2023-04-06T04:50:56;74338.78;;;-145.10;30.77
56334;BME280;42240;53.626;55.886;2023-04-06T04:52:33;74267.66;;;-145.10;30.79
56334;BME280;42240;53.626;55.886;2023-04-06T04:54:18;74198.47;;;-145.10;29.89
56334;BME280;42240;53.626;55.886;2023-04-06T04:55:51;74164.88;;;-145.10;29.56
56334;BME280;42240;53.626;55.886;2023-04-06T04:57:25;74125.38;;;-145.10;29.40
56334;BME280;42240;53.626;55.886;2023-04-06T04:58:58;74064.09;;;-145.10;28.80
56334;BME280;42240;53.626;55.886;2023-04-06T05:00:34;74038.41;;;-145.10;28.46
56334;BME280;42240;53.626;55.886;2023-04-06T05:02:07;74048.28;;;-145.10;28.26
56334;BME280;42240;53.626;55.886;2023-04-06T05:03:49;74156.97;;;-145.10;28.47
56334;BME280;42240;53.626;55.886;2023-04-06T05:05:22;74034.47;;;-145.10;28.44
56334;BME280;42240;53.626;55.886;2023-04-06T05:07:06;74016.69;;;-145.10;27.61
56334;BME280;42240;53.626;55.886;2023-04-06T05:08:42;74068.06;;;-145.10;27.79
56334;BME280;42240;53.626;55.886;2023-04-06T05:10:15;74008.78;;;-145.10;27.53
56334;BME280;42240;53.626;55.886;2023-04-06T05:11:56;74097.69;;;-145.10;28.08
56334;BME280;42240;53.626;55.886;2023-04-06T05:13:30;74164.88;;;-145.10;28.42
56334;BME280;42240;53.626;55.886;2023-04-06T05:15:05;74012.72;;;-145.10;28.08
56334;BME280;42240;53.626;55.886;2023-04-06T05:16:38;73919.84;;;-145.10;27.40
56334;BME280;42240;53.626;55.886;2023-04-06T05:18:11;73967.28;;;-145.10;26.76
56334;BME280;42240;53.626;55.886;2023-04-06T05:19:44;73898.09;;;-145.10;26.79
56334;BME280;42240;53.626;55.886;2023-04-06T05:21:21;73939.59;;;-145.10;26.25
56334;BME280;42240;53.626;55.886;2023-04-06T05:23:02;73981.09;;;-145.10;26.25
56334;BME280;42240;53.626;55.886;2023-04-06T05:24:35;73961.34;;;-145.10;26.52
56334;BME280;42240;53.626;55.886;2023-04-06T05:26:10;73933.69;;;-145.10;26.28
56334;BME280;42240;53.626;55.886;2023-04-06T05:27:43;73854.63;;;-145.10;26.35
56334;BME280;42240;53.626;55.886;2023-04-06T05:29:31;73929.72;;;-145.10;26.15
56334;BME280;42240;53.626;55.886;2023-04-06T05:31:03;73975.19;;;-145.10;26.25
56334;BME280;42240;53.626;55.886;2023-04-06T05:32:48;74052.25;;;-145.10;26.73
56334;BME280;42240;53.626;55.886;2023-04-06T05:34:21;73965.28;;;-145.10;26.40
56334;BME280;42240;53.626;55.886;2023-04-06T05:35:55;73965.28;;;-145.10;26.00
56334;BME280;42240;53.626;55.886;2023-04-06T05:37:28;73904.03;;;-145.10;25.98
56334;BME280;42240;53.626;55.886;2023-04-06T05:39:01;73888.22;;;-145.10;25.72
56334;BME280;42240;53.626;55.886;2023-04-06T05:40:40;73813.13;;;-145.10;25.38
56334;BME280;42240;53.626;55.886;2023-04-06T05:42:18;73828.94;;;-145.10;25.62
56334;BME280;42240;53.626;55.886;2023-04-06T05:43:58;73787.44;;;-145.10;25.33
56334;BME280;42240;53.626;55.886;2023-04-06T05:45:31;73751.88;;;-145.10;25.18
56334;BME280;42240;53.626;55.886;2023-04-06T05:47:04;73759.78;;;-145.10;25.04
56334;BME280;42240;53.626;55.886;2023-04-06T05:48:37;73749.91;;;-145.10;25.02
56334;BME280;42240;53.626;55.886;2023-04-06T05:50:11;73801.28;;;-145.10;25.23
56334;BME280;42240;53.626;55.886;2023-04-06T05:51:45;73777.56;;;-145.10;25.35
56334;BME280;42240;53.626;55.886;2023-04-06T05:53:18;73828.94;;;-145.10;25.17
56334;BME280;42240;53.626;55.886;2023-04-06T05:54:59;73896.13;;;-145.10;25.68
56334;BME280;42240;53.626;55.886;2023-04-06T05:56:36;73911.94;;;-145.10;25.86
56334;BME280;42240;53.626;55.886;2023-04-06T05:58:10;73909.97;;;-145.10;25.58
56334;BME280;42240;53.626;55.886;2023-04-06T05:59:43;73913.91;;;-145.10;25.70
56334;BME280;42240;53.626;55.886;2023-04-06T06:01:18;73911.94;;;-145.10;25.72
56334;BME280;42240;53.626;55.886;2023-04-06T06:02:52;73908.00;;;-145.10;25.42
56334;BME280;42240;53.626;55.886;2023-04-06T06:04:30;73872.41;;;-145.10;25.62
56334;BME280;42240;53.626;55.886;2023-04-06T06:06:03;73793.38;;;-145.10;25.26
56334;BME280;42240;53.626;55.886;2023-04-06T06:08:03;73898.09;;;-145.10;25.31
56334;BME280;42240;53.626;55.886;2023-04-06T06:09:36;73888.22;;;-145.10;25.17
56334;BME280;42240;53.626;55.886;2023-04-06T06:11:19;73915.91;;;-145.10;25.02
56334;BME280;42240;53.626;55.886;2023-04-06T06:12:53;73971.22;;;-145.10;25.22
56334;BME280;42240;53.626;55.886;2023-04-06T06:14:26;73832.91;;;-145.10;25.08
56334;BME280;42240;53.626;55.886;2023-04-06T06:16:03;73909.97;;;-145.10;24.97
56334;BME280;42240;53.626;55.886;2023-04-06T06:17:40;73892.19;;;-145.10;25.21
56334;BME280;42240;53.626;55.886;2023-04-06T06:19:13;73811.16;;;-145.10;24.96
56334;BME280;42240;53.626;55.886;2023-04-06T06:20:48;73834.88;;;-145.10;25.03
56334;BME280;42240;53.626;55.886;2023-04-06T06:22:21;73785.47;;;-145.10;25.10
56334;BME280;42240;53.626;55.886;2023-04-06T06:23:54;73753.84;;;-145.10;24.83
56334;BME280;42240;53.626;55.886;2023-04-06T06:25:28;73738.06;;;-145.10;24.66
56334;BME280;42240;53.626;55.886;2023-04-06T06:27:03;73710.38;;;-145.10;24.54
56334;BME280;42240;53.626;55.886;2023-04-06T06:28:38;73771.66;;;-145.10;24.96
56334;BME280;42240;53.626;55.886;2023-04-06T06:30:11;73813.13;;;-145.10;25.56
56334;BME280;42240;53.626;55.886;2023-04-06T06:31:46;73969.25;;;-145.10;25.50
56334;BME280;42240;53.626;55.886;2023-04-06T06:33:19;73941.59;;;-145.10;25.99
56334;BME280;42240;53.626;55.886;2023-04-06T06:34:54;74008.78;;;-145.10;25.83
56334;BME280;42240;53.626;55.886;2023-04-06T06:36:27;74002.84;;;-145.10;26.35
56334;BME280;42240;53.626;55.886;2023-04-06T06:38:00;74002.84;;;-145.10;26.34
56334;BME280;42240;53.626;55.886;2023-04-06T06:39:32;74024.59;;;-145.10;26.27
56334;BME280;42240;53.626;55.886;2023-04-06T06:41:06;74038.41;;;-145.10;26.44
56334;BME280;42240;53.626;55.886;2023-04-06T06:42:42;74125.38;;;-145.10;26.49
56334;BME280;42240;53.626;55.886;2023-04-06T06:44:35;74162.91;;;-145.10;26.73
56334;BME280;42240;53.626;55.886;2023-04-06T06:46:08;74176.75;;;-145.10;26.90
56334;BME280;42240;53.626;55.886;2023-04-06T06:47:41;74170.81;;;-145.10;26.79
56334;BME280;42240;53.626;55.886;2023-04-06T06:49:15;74160.94;;;-145.10;27.36
56334;BME280;42240;53.626;55.886;2023-04-06T06:50:48;74156.97;;;-145.10;26.81
56334;BME280;42240;53.626;55.886;2023-04-06T06:52:21;74123.38;;;-145.10;27.46
56334;BME280;42240;53.626;55.886;2023-04-06T06:53:55;74317.06;;;-145.10;27.60
56334;BME280;42240;53.626;55.886;2023-04-06T06:55:28;74265.69;;;-145.10;27.60
56334;BME280;42240;53.626;55.886;2023-04-06T06:57:01;74279.50;;;-145.10;27.81
56334;BME280;42240;53.626;55.886;2023-04-06T06:58:33;74315.09;;;-145.10;27.56
56334;BME280;42240;53.626;55.886;2023-04-06T07:00:06;74315.09;;;-145.10;27.76
56334;BME280;42240;53.626;55.886;2023-04-06T07:01:42;74330.88;;;-145.10;28.03
56334;BME280;42240;53.626;55.886;2023-04-06T07:03:15;74324.97;;;-145.10;28.20
56334;BME280;42240;53.626;55.886;2023-04-06T07:04:48;74319.03;;;-145.10;28.10
56334;BME280;42240;53.626;55.886;2023-04-06T07:06:22;74384.25;;;-145.10;28.35
56334;BME280;42240;53.626;55.886;2023-04-06T07:07:55;74322.97;;;-145.10;28.14
56334;BME280;42240;53.626;55.886;2023-04-06T07:09:28;74406.00;;;-145.10;28.28
56334;BME280;42240;53.626;55.886;2023-04-06T07:11:01;74441.56;;;-145.10;28.42
56334;BME280;42240;53.626;55.886;2023-04-06T07:12:34;74417.84;;;-145.10;28.86
56334;BME280;42240;53.626;55.886;2023-04-06T07:14:07;74390.19;;;-145.10;28.64
56334;BME280;42240;53.626;55.886;2023-04-06T07:15:40;74354.59;;;-145.10;28.26
56334;BME280;42240;53.626;55.886;2023-04-06T07:17:13;74338.78;;;-145.10;28.24
56334;BME280;42240;53.626;55.886;2023-04-06T07:18:46;74406.00;;;-145.10;28.48
56334;BME280;42240;53.626;55.886;2023-04-06T07:20:18;74425.75;;;-145.10;28.19
56334;BME280;42240;53.626;55.886;2023-04-06T07:21:51;74421.81;;;-145.10;28.29
56334;BME280;42240;53.626;55.886;2023-04-06T07:23:24;74477.13;;;-145.10;28.56
56334;BME280;42240;53.626;55.886;2023-04-06T07:24:57;74510.75;;;-145.10;28.82
56334;BME280;42240;53.626;55.886;2023-04-06T07:26:31;74504.81;;;-145.10;28.99
56334;BME280;42240;53.626;55.886;2023-04-06T07:28:04;74508.75;;;-145.10;28.62
56334;BME280;42240;53.626;55.886;2023-04-06T07:29:37;74473.19;;;-145.10;28.64
56334;BME280;42240;53.626;55.886;2023-04-06T07:31:10;74413.91;;;-145.10;28.59
56334;BME280;42240;53.626;55.886;2023-04-06T07:32:43;74372.41;;;-145.10;28.13
56334;BME280;42240;53.626;55.886;2023-04-06T07:34:16;74370.41;;;-145.10;28.53
56334;BME280;42240;53.626;55.886;2023-04-06T07:35:49;74417.84;;;-145.10;28.23
56334;BME280;42240;53.626;55.886;2023-04-06T07:37:23;74492.94;;;-145.10;28.32
56334;BME280;42240;53.626;55.886;2023-04-06T07:38:55;74421.81;;;-145.10;28.71
56334;BME280;42240;53.626;55.886;2023-04-06T07:40:29;74386.22;;;-145.10;28.11
56334;BME280;42240;53.626;55.886;2023-04-06T07:42:04;74382.28;;;-145.10;28.37
56334;BME280;42240;53.626;55.886;2023-04-06T07:43:37;74417.84;;;-145.10;28.09
56334;BME280;42240;53.626;55.886;2023-04-06T07:45:11;74419.81;;;-145.10;28.13
56334;BME280;42240;53.626;55.886;2023-04-06T07:46:44;74435.63;;;-145.10;28.13
56334;BME280;42240;53.626;55.886;2023-04-06T07:48:17;74419.81;;;-145.10;28.29
56334;BME280;42240;53.626;55.886;2023-04-06T07:49:50;74453.41;;;-145.10;28.09
56334;BME280;42240;53.626;55.886;2023-04-06T07:51:23;74443.53;;;-145.10;27.99
56334;BME280;42240;53.626;55.886;2023-04-06T07:52:56;74437.63;;;-145.10;28.40
56334;BME280;42240;53.626;55.886;2023-04-06T07:54:30;74376.34;;;-145.10;28.51
56334;BME280;42240;53.626;55.886;2023-04-06T07:56:03;74382.28;;;-145.10;28.41
56334;BME280;42240;53.626;55.886;2023-04-06T07:57:36;74451.44;;;-145.10;28.26
56334;BME280;42240;53.626;55.886;2023-04-06T07:59:08;74429.72;;;-145.10;28.31
56334;BME280;42240;53.626;55.886;2023-04-06T08:00:41;74447.50;;;-145.10;28.32
56334;BME280;42240;53.626;55.886;2023-04-06T08:02:14;74398.09;;;-145.10;28.53
56334;BME280;42240;53.626;55.886;2023-04-06T08:03:47;74352.63;;;-145.10;28.17